Time;durP1;ratioP1;P1;durP2;ratioP2;P2;SDS_P1;SDS_P2;PMS_P1;PMS_P2;Temp;Humidity;BMP_temperature;BMP_pressure;BME280_temperature;BME280_humidity;BME280_pressure;Samples;Min_cycle;Max_cycle;Signal;HPM_P1;HPM_P2
2022/04/23 00:02:13;;;;;;;4.80;4.70;;;;;;;;;;5043221;28;20455;-76
2022/04/23 00:04:39;;;;;;;8.33;5.90;;;;;;;;;;5047211;28;20442;-76
2022/04/23 00:07:05;;;;;;;6.70;6.10;;;;;;;;;;5049117;28;20914;-76
2022/04/23 00:09:32;;;;;;;5.90;5.30;;;;;;;;;;5049656;28;20453;-76
2022/04/23 00:11:58;;;;;;;6.13;5.53;;;;;;;;;;5046956;28;20435;-76
2022/04/23 00:14:24;;;;;;;5.80;5.50;;;;;;;;;;5047010;28;20434;-77
2022/04/23 00:16:50;;;;;;;4.83;4.63;;;;;;;;;;5048685;28;20490;-76
2022/04/23 00:19:17;;;;;;;5.43;5.13;;;;;;;;;;5047209;28;20450;-77
2022/04/23 00:21:43;;;;;;;8.73;5.57;;;;;;;;;;5048710;28;20914;-76
2022/04/23 00:24:09;;;;;;;6.63;6.13;;;;;;;;;;5049499;28;20426;-76
2022/04/23 00:26:35;;;;;;;6.20;5.60;;;;;;;;;;5049776;28;20906;-76
2022/04/23 00:29:01;;;;;;;15.67;5.87;;;;;;;;;;5044877;28;20437;-76
2022/04/23 00:31:27;;;;;;;5.60;5.30;;;;;;;;;;5046743;28;20806;-77
2022/04/23 00:33:53;;;;;;;5.50;5.10;;;;;;;;;;5046553;28;20447;-76
2022/04/23 00:36:20;;;;;;;5.20;5.00;;;;;;;;;;5045663;28;20450;-77
2022/04/23 00:38:49;;;;;;;5.07;4.87;;;;;;;;;;5048773;28;20516;-76
2022/04/23 00:44:03;;;;;;;5.40;5.20;;;;;;;;;;5046582;28;20481;-76
2022/04/23 00:46:29;;;;;;;6.53;5.10;;;;;;;;;;5047205;28;20473;-75
2022/04/23 00:48:55;;;;;;;6.33;5.90;;;;;;;;;;5046689;28;20893;-76
2022/04/23 00:51:21;;;;;;;5.83;5.53;;;;;;;;;;5044663;28;20807;-77
2022/04/23 00:53:48;;;;;;;7.27;6.40;;;;;;;;;;5047757;28;20440;-76
2022/04/23 00:56:15;;;;;;;6.73;6.13;;;;;;;;;;5048327;28;20418;-76
2022/04/23 00:58:41;;;;;;;6.37;5.87;;;;;;;;;;5047719;28;20457;-76
2022/04/23 01:01:07;;;;;;;6.23;5.73;;;;;;;;;;5044489;28;20453;-76
2022/04/23 01:03:33;;;;;;;5.73;5.33;;;;;;;;;;5046176;28;20434;-76
2022/04/23 01:05:59;;;;;;;5.00;4.80;;;;;;;;;;5044507;28;20414;-76
2022/04/23 01:08:28;;;;;;;9.30;5.57;;;;;;;;;;5045236;28;20804;-75
2022/04/23 01:10:54;;;;;;;5.83;5.43;;;;;;;;;;5046486;28;20498;-76
2022/04/23 01:13:20;;;;;;;6.47;5.70;;;;;;;;;;5048784;28;20426;-76
2022/04/23 01:16:07;;;;;;;5.83;5.43;;;;;;;;;;5047167;28;20466;-76
2022/04/23 01:18:33;;;;;;;7.33;5.33;;;;;;;;;;5047826;28;20445;-77
2022/04/23 01:21:01;;;;;;;9.27;5.70;;;;;;;;;;5046795;28;20536;-76
2022/04/23 01:23:27;;;;;;;5.27;4.97;;;;;;;;;;5046799;28;20434;-76
2022/04/23 01:25:54;;;;;;;13.80;6.50;;;;;;;;;;5045805;28;20442;-77
2022/04/23 01:28:23;;;;;;;6.00;4.80;;;;;;;;;;5049043;28;20930;-77
2022/04/23 01:30:50;;;;;;;5.30;4.90;;;;;;;;;;5045168;28;20880;-77
2022/04/23 01:33:16;;;;;;;5.13;4.83;;;;;;;;;;5044782;28;20525;-76
2022/04/23 01:35:43;;;;;;;5.90;5.60;;;;;;;;;;5047525;28;20505;-76
2022/04/23 01:38:09;;;;;;;5.53;5.13;;;;;;;;;;5049062;28;20481;-76
2022/04/23 01:40:35;;;;;;;6.07;5.60;;;;;;;;;;5046522;28;20431;-76
2022/04/23 01:43:01;;;;;;;5.40;5.00;;;;;;;;;;5046602;28;20444;-76
2022/04/23 01:45:27;;;;;;;6.47;5.80;;;;;;;;;;5045174;28;20470;-77
2022/04/23 01:47:53;;;;;;;7.13;5.50;;;;;;;;;;5040950;28;21093;-76
2022/04/23 01:50:19;;;;;;;6.60;6.30;;;;;;;;;;5046261;28;20474;-76
2022/04/23 01:52:46;;;;;;;11.10;6.27;;;;;;;;;;5048321;28;20462;-77
2022/04/23 01:55:12;;;;;;;6.47;6.17;;;;;;;;;;5047310;28;20832;-77
2022/04/23 01:57:38;;;;;;;5.70;5.20;;;;;;;;;;5044723;28;20564;-76
2022/04/23 02:00:14;;;;;;;6.30;5.80;;;;;;;;;;5045633;28;20426;-76
2022/04/23 02:02:40;;;;;;;5.73;5.43;;;;;;;;;;5047443;28;20463;-76
2022/04/23 02:05:07;;;;;;;6.60;6.10;;;;;;;;;;5051104;28;20445;-76
2022/04/23 02:07:40;;;;;;;12.70;6.23;;;;;;;;;;5051101;28;20496;-76
2022/04/23 02:10:07;;;;;;;6.43;6.03;;;;;;;;;;5050738;28;20448;-76
2022/04/23 02:12:33;;;;;;;6.93;6.33;;;;;;;;;;5047858;28;20427;-76
2022/04/23 02:14:59;;;;;;;10.20;5.97;;;;;;;;;;5050180;28;20432;-77
2022/04/23 02:17:35;;;;;;;5.90;5.60;;;;;;;;;;5048029;28;20482;-76
2022/04/23 02:20:02;;;;;;;6.53;5.90;;;;;;;;;;5050611;28;20934;-76
2022/04/23 02:22:28;;;;;;;6.87;6.30;;;;;;;;;;5049906;28;20438;-77
2022/04/23 02:24:54;;;;;;;6.27;5.93;;;;;;;;;;5049256;28;20438;-76
2022/04/23 02:27:20;;;;;;;5.90;5.33;;;;;;;;;;5052606;28;20453;-76
2022/04/23 02:29:46;;;;;;;6.40;5.80;;;;;;;;;;5046273;28;20438;-76
2022/04/23 02:32:12;;;;;;;6.10;5.80;;;;;;;;;;5049386;28;20481;-76
2022/04/23 02:34:39;;;;;;;10.57;5.83;;;;;;;;;;5049854;28;20480;-77
2022/04/23 02:37:07;;;;;;;6.63;6.13;;;;;;;;;;5049682;28;20469;-77
2022/04/23 02:39:33;;;;;;;6.07;5.53;;;;;;;;;;5048990;28;20438;-76
2022/04/23 02:41:59;;;;;;;6.43;6.07;;;;;;;;;;5047456;28;20445;-77
2022/04/23 02:44:25;;;;;;;7.17;6.47;;;;;;;;;;5050401;28;20965;-77
2022/04/23 02:46:52;;;;;;;7.53;6.93;;;;;;;;;;5048207;28;20516;-76
2022/04/23 02:49:18;;;;;;;6.83;6.30;;;;;;;;;;5046255;28;21001;-76
2022/04/23 02:51:44;;;;;;;7.50;6.70;;;;;;;;;;5050715;28;20484;-77
2022/04/23 02:54:12;;;;;;;8.73;7.07;;;;;;;;;;5048744;28;20439;-76
2022/04/23 02:56:38;;;;;;;7.00;6.50;;;;;;;;;;5047862;28;20482;-77
2022/04/23 02:59:06;;;;;;;7.40;6.90;;;;;;;;;;5047374;28;20433;-76
2022/04/23 03:01:34;;;;;;;8.10;7.50;;;;;;;;;;5048428;28;20802;-77
2022/04/23 03:04:00;;;;;;;6.87;6.37;;;;;;;;;;5050051;28;20472;-76
2022/04/23 03:06:30;;;;;;;7.97;7.37;;;;;;;;;;5047599;28;20470;-76
2022/04/23 03:08:56;;;;;;;8.80;7.93;;;;;;;;;;5047017;28;20450;-76
2022/04/23 03:11:23;;;;;;;7.70;7.00;;;;;;;;;;5049461;28;20942;-76
2022/04/23 03:13:49;;;;;;;9.80;8.57;;;;;;;;;;5048331;28;20522;-76
2022/04/23 03:16:15;;;;;;;12.77;10.10;;;;;;;;;;5047664;28;20536;-76
2022/04/23 03:18:41;;;;;;;8.47;7.67;;;;;;;;;;5050514;28;20489;-75
2022/04/23 03:21:07;;;;;;;7.70;6.90;;;;;;;;;;5049554;28;20974;-76
2022/04/23 03:23:32;;;;;;;7.50;6.80;;;;;;;;;;5048697;28;20811;-76
2022/04/23 03:25:59;;;;;;;8.03;7.27;;;;;;;;;;5046573;28;20454;-76
2022/04/23 03:28:25;;;;;;;7.97;7.10;;;;;;;;;;5047660;28;20808;-76
2022/04/23 03:30:51;;;;;;;8.73;7.93;;;;;;;;;;5046953;28;20434;-77
2022/04/23 03:33:17;;;;;;;7.17;6.77;;;;;;;;;;5049475;28;20434;-77
2022/04/23 03:35:44;;;;;;;8.00;7.40;;;;;;;;;;5045765;28;20434;-76
2022/04/23 03:38:10;;;;;;;6.70;6.30;;;;;;;;;;5046309;28;20501;-76
2022/04/23 03:40:36;;;;;;;7.47;6.83;;;;;;;;;;5045730;28;20442;-76
2022/04/23 03:43:03;;;;;;;6.93;6.53;;;;;;;;;;5048201;28;20457;-76
2022/04/23 03:45:31;;;;;;;7.90;6.83;;;;;;;;;;5050004;28;20430;-77
2022/04/23 03:47:57;;;;;;;7.10;6.60;;;;;;;;;;5048127;28;20467;-76
2022/04/23 03:50:23;;;;;;;12.50;6.27;;;;;;;;;;5046771;28;20548;-76
2022/04/23 03:52:49;;;;;;;12.43;6.77;;;;;;;;;;5045852;28;20427;-76
2022/04/23 03:55:15;;;;;;;7.03;6.53;;;;;;;;;;5045291;28;20429;-76
2022/04/23 03:57:48;;;;;;;6.17;5.83;;;;;;;;;;5063126;28;20855;-76
2022/04/23 04:00:15;;;;;;;7.07;6.47;;;;;;;;;;5048240;28;20429;-76
2022/04/23 04:02:42;;;;;;;6.20;5.70;;;;;;;;;;5048128;28;20442;-76
2022/04/23 04:05:08;;;;;;;6.93;6.33;;;;;;;;;;5048774;28;20434;-76
2022/04/23 04:07:34;;;;;;;6.43;6.13;;;;;;;;;;5049193;28;20938;-76
2022/04/23 04:10:01;;;;;;;7.47;6.90;;;;;;;;;;5045056;28;20438;-77
2022/04/23 04:12:28;;;;;;;9.30;7.07;;;;;;;;;;5047686;28;20434;-77
2022/04/23 04:14:54;;;;;;;7.53;6.17;;;;;;;;;;5046541;28;20584;-76
2022/04/23 04:17:20;;;;;;;8.20;7.50;;;;;;;;;;5049141;28;20478;-77
2022/04/23 04:19:46;;;;;;;7.70;6.90;;;;;;;;;;5048639;28;20422;-77
2022/04/23 04:22:12;;;;;;;8.90;8.07;;;;;;;;;;5043236;28;20876;-77
2022/04/23 04:24:38;;;;;;;8.30;7.70;;;;;;;;;;5047097;28;20523;-76
2022/04/23 04:27:06;;;;;;;9.43;7.87;;;;;;;;;;5048150;28;20522;-77
2022/04/23 04:29:32;;;;;;;10.80;8.60;;;;;;;;;;5047163;28;20423;-76
2022/04/23 04:31:58;;;;;;;8.50;7.80;;;;;;;;;;5047063;28;20492;-76
2022/04/23 04:34:28;;;;;;;8.40;7.70;;;;;;;;;;5047607;28;20425;-76
2022/04/23 04:37:01;;;;;;;7.57;7.03;;;;;;;;;;5046652;28;20466;-76
2022/04/23 04:39:27;;;;;;;8.27;7.37;;;;;;;;;;5044556;28;20485;-77
2022/04/23 04:41:53;;;;;;;7.53;7.03;;;;;;;;;;5045605;28;20469;-76
2022/04/23 04:44:19;;;;;;;7.20;6.30;;;;;;;;;;5048382;28;20521;-76
2022/04/23 04:46:45;;;;;;;8.30;7.60;;;;;;;;;;5045516;28;20450;-77
2022/04/23 04:49:11;;;;;;;7.80;7.00;;;;;;;;;;5047610;28;20470;-76
2022/04/23 04:51:37;;;;;;;8.00;7.30;;;;;;;;;;5044834;28;20450;-76
2022/04/23 04:54:04;;;;;;;8.40;7.67;;;;;;;;;;5046098;28;20546;-78
2022/04/23 04:56:30;;;;;;;8.83;8.00;;;;;;;;;;5047463;28;20465;-77
2022/04/23 04:58:56;;;;;;;7.97;7.30;;;;;;;;;;5046098;28;20439;-76
2022/04/23 05:01:22;;;;;;;11.47;7.93;;;;;;;;;;5048203;28;20435;-76
2022/04/23 05:03:48;;;;;;;9.50;8.47;;;;;;;;;;5045619;28;20438;-76
2022/04/23 05:06:14;;;;;;;8.90;7.50;;;;;;;;;;5047017;28;21014;-76
2022/04/23 05:08:41;;;;;;;6.40;6.03;;;;;;;;;;5047321;28;20430;-75
2022/04/23 05:11:08;;;;;;;8.43;7.83;;;;;;;;;;5047953;28;20445;-76
2022/04/23 05:13:33;;;;;;;7.30;6.80;;;;;;;;;;5045326;28;20865;-76
2022/04/23 05:16:00;;;;;;;7.97;7.20;;;;;;;;;;5047174;28;20466;-75
2022/04/23 05:18:26;;;;;;;7.57;6.97;;;;;;;;;;5048082;28;20569;-76
2022/04/23 05:20:53;;;;;;;7.27;6.77;;;;;;;;;;5045509;28;20588;-76
2022/04/23 05:23:19;;;;;;;6.70;6.40;;;;;;;;;;5041579;28;20447;-77
2022/04/23 05:25:45;;;;;;;8.20;7.40;;;;;;;;;;5045478;28;20429;-77
2022/04/23 05:28:11;;;;;;;8.33;7.63;;;;;;;;;;5046663;28;20442;-69
2022/04/23 05:30:38;;;;;;;8.70;8.00;;;;;;;;;;5045848;28;20437;-70
2022/04/23 05:33:05;;;;;;;8.63;7.93;;;;;;;;;;5047962;28;20475;-76
2022/04/23 05:35:31;;;;;;;8.40;7.80;;;;;;;;;;5041203;28;20511;-70
2022/04/23 05:37:57;;;;;;;9.87;8.00;;;;;;;;;;5043958;28;20489;-70
2022/04/23 05:40:23;;;;;;;8.80;8.00;;;;;;;;;;5050375;28;20434;-74
2022/04/23 05:42:49;;;;;;;10.17;8.60;;;;;;;;;;5049498;28;21020;-74
2022/04/23 05:45:15;;;;;;;7.87;7.47;;;;;;;;;;5050343;28;20438;-77
2022/04/23 05:47:41;;;;;;;8.70;8.00;;;;;;;;;;5050174;28;21064;-76
2022/04/23 05:50:08;;;;;;;8.70;7.93;;;;;;;;;;5048968;28;20481;-77
2022/04/23 05:52:35;;;;;;;9.93;7.60;;;;;;;;;;5051467;28;20840;-77
2022/04/23 05:55:01;;;;;;;9.10;8.27;;;;;;;;;;5048600;28;20461;-76
2022/04/23 05:57:27;;;;;;;8.57;8.00;;;;;;;;;;5050966;28;20481;-77
2022/04/23 05:59:53;;;;;;;15.73;8.87;;;;;;;;;;5049359;28;20846;-75
2022/04/23 06:02:19;;;;;;;8.97;7.83;;;;;;;;;;5049757;28;20445;-78
2022/04/23 06:04:48;;;;;;;9.40;8.60;;;;;;;;;;5048376;28;20438;-76
2022/04/23 06:07:14;;;;;;;8.83;7.27;;;;;;;;;;5049511;28;20438;-75
2022/04/23 06:09:40;;;;;;;12.23;8.70;;;;;;;;;;5050623;28;20438;-75
2022/04/23 06:12:06;;;;;;;16.37;8.87;;;;;;;;;;5050992;28;20483;-75
2022/04/23 06:14:32;;;;;;;10.17;9.20;;;;;;;;;;5045987;28;20837;-75
2022/04/23 06:16:58;;;;;;;9.83;8.50;;;;;;;;;;5049975;28;20481;-77
2022/04/23 06:19:24;;;;;;;7.07;6.67;;;;;;;;;;5050247;28;21032;-76
2022/04/23 06:21:51;;;;;;;9.30;8.40;;;;;;;;;;5046438;28;20461;-76
2022/04/23 06:24:16;;;;;;;9.97;8.93;;;;;;;;;;5047922;28;20434;-75
2022/04/23 06:26:43;;;;;;;8.90;8.00;;;;;;;;;;5045913;28;20433;-75
2022/04/23 06:29:09;;;;;;;10.83;9.83;;;;;;;;;;5048220;28;20443;-76
2022/04/23 06:31:35;;;;;;;9.53;8.63;;;;;;;;;;5047761;28;20430;-76
2022/04/23 06:34:00;;;;;;;9.90;8.93;;;;;;;;;;5049884;28;21506;-76
2022/04/23 06:36:27;;;;;;;10.07;9.30;;;;;;;;;;5043663;28;20438;-75
2022/04/23 06:38:53;;;;;;;10.07;9.20;;;;;;;;;;5046134;28;20453;-76
2022/04/23 06:41:19;;;;;;;9.23;8.43;;;;;;;;;;5049823;28;20430;-76
2022/04/23 06:43:45;;;;;;;9.73;8.87;;;;;;;;;;5050081;28;20588;-76
2022/04/23 06:46:11;;;;;;;8.30;7.80;;;;;;;;;;5042282;28;20442;-76
2022/04/23 06:48:37;;;;;;;9.70;8.77;;;;;;;;;;5047480;28;20430;-76
2022/04/23 06:51:03;;;;;;;9.20;8.33;;;;;;;;;;5045354;28;20538;-76
2022/04/23 06:53:29;;;;;;;9.67;8.73;;;;;;;;;;5046347;28;20431;-75
2022/04/23 06:55:55;;;;;;;9.97;9.00;;;;;;;;;;5046854;28;20915;-75
2022/04/23 06:58:22;;;;;;;9.53;8.73;;;;;;;;;;5046257;28;20978;-76
2022/04/23 07:00:48;;;;;;;10.73;8.60;;;;;;;;;;5044885;28;20521;-76
2022/04/23 07:03:14;;;;;;;11.03;10.00;;;;;;;;;;5045057;28;20534;-77
2022/04/23 07:05:40;;;;;;;10.07;9.20;;;;;;;;;;5044880;28;21030;-80
2022/04/23 07:08:06;;;;;;;12.80;9.70;;;;;;;;;;5046208;28;20462;-79
2022/04/23 07:10:33;;;;;;;13.40;9.40;;;;;;;;;;5039943;28;20444;-80
2022/04/23 07:12:59;;;;;;;8.93;8.30;;;;;;;;;;5045951;28;20449;-78
2022/04/23 07:15:27;;;;;;;14.20;10.10;;;;;;;;;;5043946;28;20433;-80
2022/04/23 07:17:53;;;;;;;11.03;8.50;;;;;;;;;;5045329;28;20500;-80
2022/04/23 07:20:20;;;;;;;10.83;9.53;;;;;;;;;;5050138;28;20446;-79
2022/04/23 07:25:31;;;;;;;9.50;8.60;;;;;;;;;;5045839;28;20514;-79
2022/04/23 07:27:58;;;;;;;13.03;9.93;;;;;;;;;;5045263;28;20414;-79
2022/04/23 07:30:24;;;;;;;14.10;9.33;;;;;;;;;;5045547;28;20446;-76
2022/04/23 07:32:52;;;;;;;11.85;10.65;;;;;;;;;;5044862;28;20421;-72
2022/04/23 07:38:12;;;;;;;10.77;9.83;;;;;;;;;;5045372;28;20536;-76
2022/04/23 07:40:41;;;;;;;12.67;9.60;;;;;;;;;;5045752;28;20430;-76
2022/04/23 07:43:11;;;;;;;11.43;10.33;;;;;;;;;;5042086;28;20494;-76
2022/04/23 07:45:41;;;;;;;11.23;10.03;;;;;;;;;;5047376;28;20937;-76
2022/04/23 07:48:08;;;;;;;10.63;9.40;;;;;;;;;;5040007;28;21043;-76
2022/04/23 07:50:35;;;;;;;15.20;10.30;;;;;;;;;;5047122;28;20478;-76
2022/04/23 07:53:01;;;;;;;11.73;10.63;;;;;;;;;;5049255;28;20439;-74
2022/04/23 07:55:30;;;;;;;13.90;10.40;;;;;;;;;;5050325;28;20433;-76
2022/04/23 07:57:59;;;;;;;13.50;11.10;;;;;;;;;;5048754;28;20573;-76
2022/04/23 08:00:25;;;;;;;13.17;12.07;;;;;;;;;;5047628;28;20899;-75
2022/04/23 08:02:52;;;;;;;14.13;12.87;;;;;;;;;;5042502;28;20507;-76
2022/04/23 08:05:18;;;;;;;16.80;14.07;;;;;;;;;;5047335;28;20786;-76
2022/04/23 08:07:44;;;;;;;15.50;13.20;;;;;;;;;;5045502;28;20541;-76
2022/04/23 08:10:10;;;;;;;28.42;18.95;;;;;;;;;;5044091;28;20427;-76
2022/04/23 08:12:36;;;;;;;18.47;15.37;;;;;;;;;;5046400;28;20188;-77
2022/04/23 08:15:06;;;;;;;18.77;12.43;;;;;;;;;;5047816;28;20484;-77
2022/04/23 08:17:32;;;;;;;16.13;12.47;;;;;;;;;;5048818;28;20788;-76
2022/04/23 08:19:58;;;;;;;13.60;12.20;;;;;;;;;;5048454;28;20481;-77
2022/04/23 08:22:24;;;;;;;13.23;11.90;;;;;;;;;;5049640;28;20430;-76
2022/04/23 08:24:50;;;;;;;15.98;14.38;;;;;;;;;;5048435;28;20423;-76
2022/04/23 08:27:16;;;;;;;21.93;13.40;;;;;;;;;;5049418;28;20184;-77
2022/04/23 08:32:46;;;;;;;14.97;13.57;;;;;;;;;;5005067;28;20486;-79
2022/04/23 08:35:12;;;;;;;15.10;13.60;;;;;;;;;;5007448;28;20440;-80
2022/04/23 08:37:39;;;;;;;14.50;12.70;;;;;;;;;;5025759;28;20480;-78
2022/04/23 08:40:05;;;;;;;12.67;11.37;;;;;;;;;;5044315;28;20474;-78
2022/04/23 08:42:31;;;;;;;14.40;12.60;;;;;;;;;;5044712;28;20430;-78
2022/04/23 08:44:57;;;;;;;16.60;13.60;;;;;;;;;;5048580;28;20525;-78
2022/04/23 08:47:24;;;;;;;14.23;12.80;;;;;;;;;;5049305;28;20530;-78
2022/04/23 08:49:54;;;;;;;14.17;12.63;;;;;;;;;;5047415;28;20489;-78
2022/04/23 08:52:31;;;;;;;16.03;13.67;;;;;;;;;;5048224;28;20438;-78
2022/04/23 08:54:58;;;;;;;18.50;13.57;;;;;;;;;;5049539;28;20479;-77
2022/04/23 08:57:24;;;;;;;15.50;12.47;;;;;;;;;;5045331;28;20580;-78
2022/04/23 08:59:53;;;;;;;15.63;13.90;;;;;;;;;;5037113;28;20529;-80
2022/04/23 09:02:19;;;;;;;22.20;14.13;;;;;;;;;;5044487;28;20496;-78
2022/04/23 09:04:45;;;;;;;16.00;14.40;;;;;;;;;;5042098;28;20454;-76
2022/04/23 09:07:28;;;;;;;18.10;15.20;;;;;;;;;;5044991;28;20481;-77
2022/04/23 09:09:54;;;;;;;17.83;14.10;;;;;;;;;;5040085;28;20541;-79
2022/04/23 09:12:24;;;;;;;15.70;14.03;;;;;;;;;;5044585;28;20496;-75
2022/04/23 09:14:50;;;;;;;15.10;13.33;;;;;;;;;;5047606;28;21876;-76
2022/04/23 09:25:57;;;;;;;13.73;12.40;;;;;;;;;;5049240;28;20422;-78
2022/04/23 09:28:26;;;;;;;13.03;11.70;;;;;;;;;;5045939;28;20434;-75
2022/04/23 09:30:54;;;;;;;19.13;12.37;;;;;;;;;;5045402;28;20465;-78
2022/04/23 09:33:29;;;;;;;21.00;15.63;;;;;;;;;;5047280;28;20471;-78
2022/04/23 09:35:59;;;;;;;14.07;12.77;;;;;;;;;;5042398;28;20430;-77
2022/04/23 09:38:26;;;;;;;15.27;13.70;;;;;;;;;;5047486;28;20467;-77
2022/04/23 09:40:56;;;;;;;13.20;11.80;;;;;;;;;;5046478;28;20435;-77
2022/04/23 09:43:26;;;;;;;13.43;12.10;;;;;;;;;;5044855;28;20809;-77
2022/04/23 09:46:05;;;;;;;14.03;12.83;;;;;;;;;;5048362;28;20440;-77
2022/04/23 09:48:32;;;;;;;15.00;13.60;;;;;;;;;;5045659;28;20923;-74
2022/04/23 09:50:58;;;;;;;17.57;13.57;;;;;;;;;;5046385;28;20461;-80
2022/04/23 09:53:28;;;;;;;21.53;15.60;;;;;;;;;;5043991;28;20438;-78
2022/04/23 09:56:04;;;;;;;17.13;14.67;;;;;;;;;;5045211;28;20500;-79
2022/04/23 09:58:32;;;;;;;17.53;15.10;;;;;;;;;;5045111;28;20481;-77
2022/04/23 10:00:58;;;;;;;14.80;13.37;;;;;;;;;;5047082;28;20443;-76
2022/04/23 10:03:31;;;;;;;10.97;9.47;;;;;;;;;;5047127;28;20443;-76
2022/04/23 10:05:58;;;;;;;14.00;12.70;;;;;;;;;;5045618;28;20437;-77
2022/04/23 10:08:29;;;;;;;14.93;13.53;;;;;;;;;;5044740;28;20438;-77
2022/04/23 10:10:55;;;;;;;18.10;14.47;;;;;;;;;;5041319;28;20453;-75
2022/04/23 10:13:23;;;;;;;16.67;14.30;;;;;;;;;;5035462;28;20443;-74
2022/04/23 10:15:51;;;;;;;14.87;13.30;;;;;;;;;;5035328;28;20434;-73
2022/04/23 10:18:17;;;;;;;17.30;12.07;;;;;;;;;;5037919;28;20596;-78
2022/04/23 10:20:58;;;;;;;17.27;14.00;;;;;;;;;;5041081;28;20442;-77
2022/04/23 10:23:23;;;;;;;21.43;13.30;;;;;;;;;;5037185;28;20454;-77
2022/04/23 10:26:30;;;;;;;19.27;14.53;;;;;;;;;;5062735;28;20495;-77
2022/04/23 10:28:56;;;;;;;14.90;13.33;;;;;;;;;;4991306;28;20444;-79
2022/04/23 10:31:23;;;;;;;16.93;12.50;;;;;;;;;;5003677;28;20440;-76
2022/04/23 10:33:51;;;;;;;16.33;13.23;;;;;;;;;;5021147;28;20503;-76
2022/04/23 10:36:18;;;;;;;13.50;12.30;;;;;;;;;;5038407;28;20973;-79
2022/04/23 10:38:53;;;;;;;17.80;14.20;;;;;;;;;;5043077;28;20564;-80
2022/04/23 10:41:19;;;;;;;15.57;12.30;;;;;;;;;;5045010;28;20453;-77
2022/04/23 10:44:12;;;;;;;14.60;13.10;;;;;;;;;;5050316;28;20480;-77
2022/04/23 10:46:40;;;;;;;16.13;14.03;;;;;;;;;;5044208;28;20450;-78
2022/04/23 10:49:13;;;;;;;15.87;13.93;;;;;;;;;;5046009;28;20470;-75
2022/04/23 10:51:49;;;;;;;19.20;14.10;;;;;;;;;;5048797;28;20536;-77
2022/04/23 10:54:16;;;;;;;14.10;12.73;;;;;;;;;;5045578;28;20518;-77
2022/04/23 10:56:44;;;;;;;14.07;12.57;;;;;;;;;;5046068;28;20438;-78
2022/04/23 10:59:28;;;;;;;22.83;15.43;;;;;;;;;;5047442;28;21634;-75
2022/04/23 11:01:54;;;;;;;15.90;14.03;;;;;;;;;;5047596;28;20433;-76
2022/04/23 11:04:20;;;;;;;15.60;14.07;;;;;;;;;;5046417;28;20435;-75
2022/04/23 11:12:20;;;;;;;16.60;14.23;;;;;;;;;;5042017;28;20461;-75
2022/04/23 11:14:50;;;;;;;16.97;15.27;;;;;;;;;;5048023;28;20524;-76
2022/04/23 11:17:20;;;;;;;16.90;15.10;;;;;;;;;;5044098;28;20509;-76
2022/04/23 11:19:51;;;;;;;16.63;14.20;;;;;;;;;;5048061;28;20454;-76
2022/04/23 11:22:17;;;;;;;18.03;16.17;;;;;;;;;;5047337;28;20481;-76
2022/04/23 11:24:45;;;;;;;17.70;15.70;;;;;;;;;;5048565;28;20454;-74
2022/04/23 11:27:23;;;;;;;20.83;14.90;;;;;;;;;;5041561;28;20442;-74
2022/04/23 11:29:53;;;;;;;16.93;15.10;;;;;;;;;;5051396;28;20974;-76
2022/04/23 11:32:29;;;;;;;18.10;15.87;;;;;;;;;;5045945;28;20442;-76
2022/04/23 11:34:55;;;;;;;19.07;15.57;;;;;;;;;;5044959;28;20527;-76
2022/04/23 11:37:48;;;;;;;25.17;15.80;;;;;;;;;;5039603;28;20593;-76
2022/04/23 11:40:16;;;;;;;18.23;16.00;;;;;;;;;;5045311;28;20860;-76
2022/04/23 11:42:46;;;;;;;22.27;16.70;;;;;;;;;;5046669;28;20528;-76
2022/04/23 11:45:13;;;;;;;17.57;14.87;;;;;;;;;;5043800;28;20448;-76
2022/04/23 11:47:39;;;;;;;18.47;16.30;;;;;;;;;;5046576;28;20442;-73
2022/04/23 11:50:11;;;;;;;20.07;15.30;;;;;;;;;;5044234;28;20478;-73
2022/04/23 11:52:37;;;;;;;16.70;15.00;;;;;;;;;;5042486;28;20965;-74
2022/04/23 11:55:03;;;;;;;19.97;16.33;;;;;;;;;;5044059;28;20482;-75
2022/04/23 11:57:29;;;;;;;20.47;14.60;;;;;;;;;;5047659;28;20489;-75
2022/04/23 12:00:03;;;;;;;16.27;14.67;;;;;;;;;;5045649;28;20884;-77
2022/04/23 12:02:32;;;;;;;22.43;16.17;;;;;;;;;;5046470;28;20976;-76
2022/04/23 12:04:59;;;;;;;20.70;14.93;;;;;;;;;;5045176;28;20462;-73
2022/04/23 12:07:27;;;;;;;18.13;16.23;;;;;;;;;;5048036;28;20446;-75
2022/04/23 12:09:54;;;;;;;27.87;15.10;;;;;;;;;;5050399;28;20707;-76
2022/04/23 12:12:21;;;;;;;18.07;15.87;;;;;;;;;;5045237;28;20471;-76
2022/04/23 12:14:48;;;;;;;15.63;13.83;;;;;;;;;;5045353;28;20434;-76
2022/04/23 12:17:23;;;;;;;18.20;15.80;;;;;;;;;;5049395;28;20470;-74
2022/04/23 12:19:53;;;;;;;20.50;14.50;;;;;;;;;;5042488;28;20481;-76
2022/04/23 12:22:37;;;;;;;19.70;14.00;;;;;;;;;;5050783;28;20468;-74
2022/04/23 12:25:07;;;;;;;17.77;15.10;;;;;;;;;;5045391;28;20431;-75
2022/04/23 12:27:51;;;;;;;17.57;14.87;;;;;;;;;;5047837;28;20435;-75
2022/04/23 12:41:25;;;;;;;16.60;14.97;;;;;;;;;;5043951;28;20853;-76
2022/04/23 12:43:52;;;;;;;16.20;14.50;;;;;;;;;;5043881;28;20438;-76
2022/04/23 12:46:18;;;;;;;17.23;14.80;;;;;;;;;;5043402;28;20447;-76
2022/04/23 12:49:00;;;;;;;18.17;14.40;;;;;;;;;;5043371;28;20504;-76
2022/04/23 12:51:26;;;;;;;17.20;15.13;;;;;;;;;;5046751;28;20893;-75
2022/04/23 12:53:52;;;;;;;18.40;14.37;;;;;;;;;;5050255;28;20410;-76
2022/04/23 12:56:19;;;;;;;20.00;15.57;;;;;;;;;;5043908;28;20586;-76
2022/04/23 12:58:45;;;;;;;20.40;16.13;;;;;;;;;;5048319;28;20539;-74
2022/04/23 13:01:12;;;;;;;21.13;15.20;;;;;;;;;;5047283;28;20438;-74
2022/04/23 13:03:44;;;;;;;17.63;14.77;;;;;;;;;;5048226;28;20474;-76
2022/04/23 13:08:55;;;;;;;16.50;14.70;;;;;;;;;;5047036;28;20504;-76
2022/04/23 13:11:28;;;;;;;18.63;14.27;;;;;;;;;;5049618;28;20430;-74
2022/04/23 13:13:55;;;;;;;22.03;16.20;;;;;;;;;;5044633;28;20798;-75
2022/04/23 13:16:31;;;;;;;18.00;13.77;;;;;;;;;;5047487;28;20454;-76
2022/04/23 13:18:58;;;;;;;17.43;15.70;;;;;;;;;;5045592;28;20826;-76
2022/04/23 13:21:24;;;;;;;18.93;14.80;;;;;;;;;;5046092;28;20462;-73
2022/04/23 13:23:52;;;;;;;16.77;14.67;;;;;;;;;;5044333;28;20440;-74
2022/04/23 13:26:18;;;;;;;18.73;16.50;;;;;;;;;;5039396;28;20450;-75
2022/04/23 13:28:44;;;;;;;24.63;14.03;;;;;;;;;;5049187;28;20434;-75
2022/04/23 13:31:11;;;;;;;18.67;14.87;;;;;;;;;;5047358;28;20473;-75
2022/04/23 13:33:37;;;;;;;20.40;15.43;;;;;;;;;;5044563;28;20451;-75
2022/04/23 13:36:04;;;;;;;17.10;14.90;;;;;;;;;;5040961;28;20462;-76
2022/04/23 13:38:30;;;;;;;23.27;13.43;;;;;;;;;;5047936;28;20501;-75
2022/04/23 13:40:56;;;;;;;18.23;14.07;;;;;;;;;;5036273;28;20422;-74
2022/04/23 13:43:23;;;;;;;14.07;12.40;;;;;;;;;;5042769;28;20453;-76
2022/04/23 13:45:49;;;;;;;16.90;13.77;;;;;;;;;;5046559;28;20418;-75
2022/04/23 13:48:15;;;;;;;17.87;15.00;;;;;;;;;;5042112;28;20468;-75
2022/04/23 13:50:41;;;;;;;13.77;12.27;;;;;;;;;;5038281;28;20475;-73
2022/04/23 13:53:07;;;;;;;24.50;15.10;;;;;;;;;;5047199;28;20805;-73
2022/04/23 13:55:33;;;;;;;13.70;12.30;;;;;;;;;;5043607;28;20450;-76
2022/04/23 13:57:59;;;;;;;18.33;16.37;;;;;;;;;;5041750;28;20490;-75
2022/04/23 14:00:25;;;;;;;17.87;15.00;;;;;;;;;;5047989;28;20447;-75
2022/04/23 14:11:05;;;;;;;16.00;14.33;;;;;;;;;;5043183;28;20434;-76
2022/04/23 14:13:31;;;;;;;33.13;15.77;;;;;;;;;;5044078;28;21159;-76
2022/04/23 14:15:58;;;;;;;16.10;14.03;;;;;;;;;;5048608;28;20498;-75
2022/04/23 14:18:24;;;;;;;16.93;14.10;;;;;;;;;;5045461;28;20474;-74
2022/04/23 14:20:50;;;;;;;10.17;8.37;;;;;;;;;;5045477;28;20442;-76
2022/04/23 14:23:16;;;;;;;15.37;12.40;;;;;;;;;;5047951;28;20441;-76
2022/04/23 14:25:42;;;;;;;13.77;12.00;;;;;;;;;;5048920;28;20434;-75
2022/04/23 14:28:08;;;;;;;18.00;14.37;;;;;;;;;;5049078;28;20437;-75
2022/04/23 14:30:37;;;;;;;15.23;13.73;;;;;;;;;;5050306;28;20445;-76
2022/04/23 14:33:03;;;;;;;14.37;12.83;;;;;;;;;;5050532;28;20513;-74
2022/04/23 14:35:30;;;;;;;14.47;12.27;;;;;;;;;;5046653;28;20531;-74
2022/04/23 14:37:56;;;;;;;14.00;12.50;;;;;;;;;;5046671;28;20481;-75
2022/04/23 14:40:22;;;;;;;22.87;13.50;;;;;;;;;;5051949;28;20414;-75
2022/04/23 14:42:51;;;;;;;13.30;12.10;;;;;;;;;;5049225;28;20500;-74
2022/04/23 14:45:18;;;;;;;15.70;14.10;;;;;;;;;;5041735;28;20449;-73
2022/04/23 14:47:47;;;;;;;16.20;12.80;;;;;;;;;;5048355;28;20441;-75
2022/04/23 14:50:14;;;;;;;15.40;12.97;;;;;;;;;;5050239;28;20469;-74
2022/04/23 14:55:25;;;;;;;12.33;11.10;;;;;;;;;;5049029;28;20429;-75
2022/04/23 14:57:51;;;;;;;13.73;12.30;;;;;;;;;;5049362;28;20993;-73
2022/04/23 15:00:19;;;;;;;10.03;9.10;;;;;;;;;;5049041;28;20414;-74
2022/04/23 15:02:45;;;;;;;13.50;12.10;;;;;;;;;;5047550;28;20488;-75
2022/04/23 15:05:11;;;;;;;11.67;10.50;;;;;;;;;;5043972;28;20800;-76
2022/04/23 15:07:39;;;;;;;12.23;11.00;;;;;;;;;;5048936;28;20942;-76
2022/04/23 15:10:06;;;;;;;13.40;10.40;;;;;;;;;;5050539;28;20422;-76
2022/04/23 15:12:32;;;;;;;12.33;9.80;;;;;;;;;;5050594;28;20419;-74
2022/04/23 15:14:58;;;;;;;11.23;9.37;;;;;;;;;;5048709;28;20915;-76
2022/04/23 15:17:26;;;;;;;10.67;9.73;;;;;;;;;;5047649;28;20466;-76
2022/04/23 15:19:52;;;;;;;10.40;9.40;;;;;;;;;;5051511;28;20560;-75
2022/04/23 15:22:18;;;;;;;14.50;10.00;;;;;;;;;;5048925;28;20514;-76